sensor_id;sensor_type;location;lat;lon;timestamp;P1;durP1;ratioP1;P2;durP2;ratioP2
21206;SDS011;10761;48.532;8.026;2022-08-21T00:01:56;5.18;;;2.13;;
21206;SDS011;10761;48.532;8.026;2022-08-21T00:04:21;3.97;;;1.70;;
21206;SDS011;10761;48.532;8.026;2022-08-21T00:06:47;5.53;;;1.80;;
21206;SDS011;10761;48.532;8.026;2022-08-21T00:09:14;4.80;;;1.70;;
21206;SDS011;10761;48.532;8.026;2022-08-21T00:11:40;5.07;;;2.15;;
21206;SDS011;10761;48.532;8.026;2022-08-21T00:14:07;3.25;;;1.88;;
21206;SDS011;10761;48.532;8.026;2022-08-21T00:16:34;3.58;;;1.58;;
21206;SDS011;10761;48.532;8.026;2022-08-21T00:19:00;5.07;;;2.00;;
21206;SDS011;10761;48.532;8.026;2022-08-21T00:21:26;5.00;;;1.90;;
21206;SDS011;10761;48.532;8.026;2022-08-21T00:23:52;4.40;;;1.80;;
21206;SDS011;10761;48.532;8.026;2022-08-21T00:26:17;4.72;;;1.90;;
21206;SDS011;10761;48.532;8.026;2022-08-21T00:28:43;3.92;;;1.85;;
21206;SDS011;10761;48.532;8.026;2022-08-21T00:31:10;6.55;;;2.08;;
21206;SDS011;10761;48.532;8.026;2022-08-21T00:33:37;6.45;;;1.90;;
21206;SDS011;10761;48.532;8.026;2022-08-21T00:36:03;4.60;;;1.90;;
21206;SDS011;10761;48.532;8.026;2022-08-21T00:38:29;6.57;;;1.90;;
21206;SDS011;10761;48.532;8.026;2022-08-21T00:40:59;7.55;;;2.20;;
21206;SDS011;10761;48.532;8.026;2022-08-21T00:43:27;4.60;;;1.90;;
21206;SDS011;10761;48.532;8.026;2022-08-21T00:45:56;6.90;;;2.40;;
21206;SDS011;10761;48.532;8.026;2022-08-21T00:48:22;8.23;;;2.47;;
21206;SDS011;10761;48.532;8.026;2022-08-21T00:50:57;5.80;;;1.98;;
21206;SDS011;10761;48.532;8.026;2022-08-21T00:53:23;6.10;;;1.77;;
21206;SDS011;10761;48.532;8.026;2022-08-21T00:55:50;6.40;;;2.47;;
21206;SDS011;10761;48.532;8.026;2022-08-21T00:58:16;6.55;;;2.13;;
21206;SDS011;10761;48.532;8.026;2022-08-21T01:00:43;6.35;;;2.00;;
21206;SDS011;10761;48.532;8.026;2022-08-21T01:03:12;4.05;;;1.90;;
21206;SDS011;10761;48.532;8.026;2022-08-21T01:05:40;4.78;;;1.88;;
21206;SDS011;10761;48.532;8.026;2022-08-21T01:08:07;5.55;;;2.50;;
21206;SDS011;10761;48.532;8.026;2022-08-21T01:10:34;6.22;;;2.28;;
21206;SDS011;10761;48.532;8.026;2022-08-21T01:13:02;4.78;;;1.90;;
21206;SDS011;10761;48.532;8.026;2022-08-21T01:15:32;9.52;;;2.10;;
21206;SDS011;10761;48.532;8.026;2022-08-21T01:18:00;9.10;;;2.53;;
21206;SDS011;10761;48.532;8.026;2022-08-21T01:20:27;5.30;;;2.40;;
21206;SDS011;10761;48.532;8.026;2022-08-21T01:22:53;5.70;;;2.33;;
21206;SDS011;10761;48.532;8.026;2022-08-21T01:25:18;8.18;;;2.50;;
21206;SDS011;10761;48.532;8.026;2022-08-21T01:27:47;7.78;;;2.50;;
21206;SDS011;10761;48.532;8.026;2022-08-21T01:30:14;6.15;;;2.40;;
21206;SDS011;10761;48.532;8.026;2022-08-21T01:32:43;6.72;;;2.10;;
21206;SDS011;10761;48.532;8.026;2022-08-21T01:35:09;9.38;;;2.30;;
21206;SDS011;10761;48.532;8.026;2022-08-21T01:37:38;6.22;;;2.28;;
21206;SDS011;10761;48.532;8.026;2022-08-21T01:40:04;5.95;;;2.45;;
21206;SDS011;10761;48.532;8.026;2022-08-21T01:42:31;9.50;;;2.40;;
21206;SDS011;10761;48.532;8.026;2022-08-21T01:44:56;7.68;;;2.42;;
21206;SDS011;10761;48.532;8.026;2022-08-21T01:47:23;6.45;;;2.50;;
21206;SDS011;10761;48.532;8.026;2022-08-21T01:49:48;5.60;;;2.30;;
21206;SDS011;10761;48.532;8.026;2022-08-21T01:52:14;4.55;;;2.17;;
21206;SDS011;10761;48.532;8.026;2022-08-21T01:54:40;8.00;;;2.70;;
21206;SDS011;10761;48.532;8.026;2022-08-21T01:57:06;4.45;;;2.28;;
21206;SDS011;10761;48.532;8.026;2022-08-21T01:59:33;5.72;;;2.53;;
21206;SDS011;10761;48.532;8.026;2022-08-21T02:01:59;4.63;;;2.35;;
21206;SDS011;10761;48.532;8.026;2022-08-21T02:04:24;7.80;;;2.47;;
21206;SDS011;10761;48.532;8.026;2022-08-21T02:06:50;7.00;;;2.63;;
21206;SDS011;10761;48.532;8.026;2022-08-21T02:09:16;6.50;;;2.47;;
21206;SDS011;10761;48.532;8.026;2022-08-21T02:11:42;8.00;;;2.33;;
21206;SDS011;10761;48.532;8.026;2022-08-21T02:14:08;6.10;;;2.38;;
21206;SDS011;10761;48.532;8.026;2022-08-21T02:16:39;9.25;;;2.50;;
21206;SDS011;10761;48.532;8.026;2022-08-21T02:19:06;7.70;;;2.45;;
21206;SDS011;10761;48.532;8.026;2022-08-21T02:21:33;4.03;;;2.10;;
21206;SDS011;10761;48.532;8.026;2022-08-21T02:23:58;8.93;;;2.65;;
21206;SDS011;10761;48.532;8.026;2022-08-21T02:26:24;5.82;;;2.22;;
21206;SDS011;10761;48.532;8.026;2022-08-21T02:28:50;4.75;;;2.67;;
21206;SDS011;10761;48.532;8.026;2022-08-21T02:31:16;8.88;;;2.72;;
21206;SDS011;10761;48.532;8.026;2022-08-21T02:33:41;7.78;;;2.70;;
21206;SDS011;10761;48.532;8.026;2022-08-21T02:36:08;4.93;;;2.33;;
21206;SDS011;10761;48.532;8.026;2022-08-21T02:38:35;7.78;;;2.50;;
21206;SDS011;10761;48.532;8.026;2022-08-21T02:41:06;7.78;;;2.88;;
21206;SDS011;10761;48.532;8.026;2022-08-21T02:43:35;5.15;;;2.25;;
21206;SDS011;10761;48.532;8.026;2022-08-21T02:46:01;7.57;;;2.92;;
21206;SDS011;10761;48.532;8.026;2022-08-21T02:48:29;6.03;;;2.75;;
21206;SDS011;10761;48.532;8.026;2022-08-21T02:50:58;7.38;;;2.70;;
21206;SDS011;10761;48.532;8.026;2022-08-21T02:53:26;4.47;;;2.50;;
21206;SDS011;10761;48.532;8.026;2022-08-21T02:55:53;5.93;;;2.38;;
21206;SDS011;10761;48.532;8.026;2022-08-21T02:58:21;6.32;;;2.65;;
21206;SDS011;10761;48.532;8.026;2022-08-21T03:00:49;6.28;;;2.75;;
21206;SDS011;10761;48.532;8.026;2022-08-21T03:03:16;10.65;;;2.70;;
21206;SDS011;10761;48.532;8.026;2022-08-21T03:05:42;9.15;;;2.97;;
21206;SDS011;10761;48.532;8.026;2022-08-21T03:08:09;5.43;;;2.60;;
21206;SDS011;10761;48.532;8.026;2022-08-21T03:10:40;6.05;;;2.45;;
21206;SDS011;10761;48.532;8.026;2022-08-21T03:13:08;7.30;;;2.72;;
21206;SDS011;10761;48.532;8.026;2022-08-21T03:15:34;4.75;;;2.35;;
21206;SDS011;10761;48.532;8.026;2022-08-21T03:18:00;7.68;;;3.20;;
21206;SDS011;10761;48.532;8.026;2022-08-21T03:20:26;7.78;;;2.60;;
21206;SDS011;10761;48.532;8.026;2022-08-21T03:22:53;5.00;;;2.60;;
21206;SDS011;10761;48.532;8.026;2022-08-21T03:25:21;4.70;;;2.35;;
21206;SDS011;10761;48.532;8.026;2022-08-21T03:27:48;6.38;;;2.72;;
21206;SDS011;10761;48.532;8.026;2022-08-21T03:30:14;7.53;;;2.70;;
21206;SDS011;10761;48.532;8.026;2022-08-21T03:32:42;8.32;;;3.10;;
21206;SDS011;10761;48.532;8.026;2022-08-21T03:35:08;4.75;;;2.50;;
21206;SDS011;10761;48.532;8.026;2022-08-21T03:37:34;6.40;;;3.35;;
21206;SDS011;10761;48.532;8.026;2022-08-21T03:40:02;7.85;;;3.08;;
21206;SDS011;10761;48.532;8.026;2022-08-21T03:42:29;7.30;;;2.95;;
21206;SDS011;10761;48.532;8.026;2022-08-21T03:44:55;9.88;;;3.03;;
21206;SDS011;10761;48.532;8.026;2022-08-21T03:47:21;4.57;;;2.55;;
21206;SDS011;10761;48.532;8.026;2022-08-21T03:49:47;8.25;;;2.90;;
21206;SDS011;10761;48.532;8.026;2022-08-21T03:52:13;10.65;;;2.90;;
21206;SDS011;10761;48.532;8.026;2022-08-21T03:54:38;6.68;;;3.17;;
21206;SDS011;10761;48.532;8.026;2022-08-21T03:57:06;6.35;;;2.72;;
21206;SDS011;10761;48.532;8.026;2022-08-21T03:59:32;6.03;;;2.58;;
21206;SDS011;10761;48.532;8.026;2022-08-21T04:01:59;6.55;;;2.70;;
21206;SDS011;10761;48.532;8.026;2022-08-21T04:04:28;8.00;;;2.70;;
21206;SDS011;10761;48.532;8.026;2022-08-21T04:06:54;5.55;;;2.50;;
21206;SDS011;10761;48.532;8.026;2022-08-21T04:09:20;10.10;;;3.28;;
21206;SDS011;10761;48.532;8.026;2022-08-21T04:11:47;6.35;;;2.83;;
21206;SDS011;10761;48.532;8.026;2022-08-21T04:14:13;5.82;;;2.83;;
21206;SDS011;10761;48.532;8.026;2022-08-21T04:16:40;8.18;;;3.13;;
21206;SDS011;10761;48.532;8.026;2022-08-21T04:19:06;6.25;;;2.97;;
21206;SDS011;10761;48.532;8.026;2022-08-21T04:21:32;5.85;;;2.60;;
21206;SDS011;10761;48.532;8.026;2022-08-21T04:23:58;8.50;;;2.95;;
21206;SDS011;10761;48.532;8.026;2022-08-21T04:26:24;6.38;;;2.55;;
21206;SDS011;10761;48.532;8.026;2022-08-21T04:28:50;6.47;;;2.78;;
21206;SDS011;10761;48.532;8.026;2022-08-21T04:31:17;8.75;;;2.88;;
21206;SDS011;10761;48.532;8.026;2022-08-21T04:33:43;7.25;;;2.97;;
21206;SDS011;10761;48.532;8.026;2022-08-21T04:36:09;7.85;;;3.25;;
21206;SDS011;10761;48.532;8.026;2022-08-21T04:38:35;7.35;;;2.70;;
21206;SDS011;10761;48.532;8.026;2022-08-21T04:41:02;9.10;;;2.90;;
21206;SDS011;10761;48.532;8.026;2022-08-21T04:43:28;5.20;;;2.30;;
21206;SDS011;10761;48.532;8.026;2022-08-21T04:45:53;6.55;;;2.83;;
21206;SDS011;10761;48.532;8.026;2022-08-21T04:48:20;5.40;;;2.72;;
21206;SDS011;10761;48.532;8.026;2022-08-21T04:50:49;7.22;;;2.92;;
21206;SDS011;10761;48.532;8.026;2022-08-21T04:55:48;5.38;;;2.78;;
21206;SDS011;10761;48.532;8.026;2022-08-21T04:58:16;8.55;;;2.92;;
21206;SDS011;10761;48.532;8.026;2022-08-21T05:00:44;7.40;;;3.00;;
21206;SDS011;10761;48.532;8.026;2022-08-21T05:03:10;5.28;;;2.83;;
21206;SDS011;10761;48.532;8.026;2022-08-21T05:05:38;7.50;;;3.08;;
21206;SDS011;10761;48.532;8.026;2022-08-21T05:08:05;6.78;;;2.78;;
21206;SDS011;10761;48.532;8.026;2022-08-21T05:10:33;7.43;;;2.97;;
21206;SDS011;10761;48.532;8.026;2022-08-21T05:12:59;6.15;;;2.50;;
21206;SDS011;10761;48.532;8.026;2022-08-21T05:15:25;9.00;;;3.00;;
21206;SDS011;10761;48.532;8.026;2022-08-21T05:17:51;8.57;;;2.55;;
21206;SDS011;10761;48.532;8.026;2022-08-21T05:20:17;6.25;;;3.08;;
21206;SDS011;10761;48.532;8.026;2022-08-21T05:22:44;6.10;;;2.92;;
21206;SDS011;10761;48.532;8.026;2022-08-21T05:25:10;7.13;;;3.08;;
21206;SDS011;10761;48.532;8.026;2022-08-21T05:27:35;5.90;;;2.33;;
21206;SDS011;10761;48.532;8.026;2022-08-21T05:30:03;4.45;;;2.45;;
21206;SDS011;10761;48.532;8.026;2022-08-21T05:32:28;7.50;;;2.67;;
21206;SDS011;10761;48.532;8.026;2022-08-21T05:34:54;7.93;;;2.92;;
21206;SDS011;10761;48.532;8.026;2022-08-21T05:37:20;6.38;;;2.50;;
21206;SDS011;10761;48.532;8.026;2022-08-21T05:39:45;7.93;;;2.90;;
21206;SDS011;10761;48.532;8.026;2022-08-21T05:42:11;5.47;;;2.63;;
21206;SDS011;10761;48.532;8.026;2022-08-21T05:44:37;5.65;;;3.03;;
21206;SDS011;10761;48.532;8.026;2022-08-21T05:47:06;8.55;;;3.00;;
21206;SDS011;10761;48.532;8.026;2022-08-21T05:49:33;7.45;;;2.65;;
21206;SDS011;10761;48.532;8.026;2022-08-21T05:52:00;10.30;;;2.75;;
21206;SDS011;10761;48.532;8.026;2022-08-21T05:54:26;6.15;;;2.50;;
21206;SDS011;10761;48.532;8.026;2022-08-21T05:56:52;6.35;;;2.60;;
21206;SDS011;10761;48.532;8.026;2022-08-21T05:59:17;6.22;;;2.65;;
21206;SDS011;10761;48.532;8.026;2022-08-21T06:01:43;6.57;;;2.80;;
21206;SDS011;10761;48.532;8.026;2022-08-21T06:04:10;6.38;;;2.67;;
21206;SDS011;10761;48.532;8.026;2022-08-21T06:06:36;5.68;;;2.33;;
21206;SDS011;10761;48.532;8.026;2022-08-21T06:09:02;8.93;;;2.70;;
21206;SDS011;10761;48.532;8.026;2022-08-21T06:11:29;6.13;;;2.67;;
21206;SDS011;10761;48.532;8.026;2022-08-21T06:13:55;6.53;;;2.72;;
21206;SDS011;10761;48.532;8.026;2022-08-21T06:16:21;9.25;;;3.33;;
21206;SDS011;10761;48.532;8.026;2022-08-21T06:18:47;6.15;;;2.65;;
21206;SDS011;10761;48.532;8.026;2022-08-21T06:21:13;5.50;;;2.45;;
21206;SDS011;10761;48.532;8.026;2022-08-21T06:23:40;5.25;;;2.50;;
21206;SDS011;10761;48.532;8.026;2022-08-21T06:26:07;5.78;;;2.30;;
21206;SDS011;10761;48.532;8.026;2022-08-21T06:28:33;4.85;;;2.25;;
21206;SDS011;10761;48.532;8.026;2022-08-21T06:30:59;6.53;;;2.60;;
21206;SDS011;10761;48.532;8.026;2022-08-21T06:33:25;8.55;;;2.38;;
21206;SDS011;10761;48.532;8.026;2022-08-21T06:35:51;7.97;;;2.33;;
21206;SDS011;10761;48.532;8.026;2022-08-21T06:38:16;6.70;;;2.33;;
21206;SDS011;10761;48.532;8.026;2022-08-21T06:40:42;8.75;;;2.60;;
21206;SDS011;10761;48.532;8.026;2022-08-21T06:43:09;6.82;;;2.10;;
21206;SDS011;10761;48.532;8.026;2022-08-21T06:45:37;5.07;;;2.30;;
21206;SDS011;10761;48.532;8.026;2022-08-21T06:48:03;3.60;;;1.80;;
21206;SDS011;10761;48.532;8.026;2022-08-21T06:50:29;7.00;;;2.42;;
21206;SDS011;10761;48.532;8.026;2022-08-21T06:53:09;6.97;;;2.38;;
21206;SDS011;10761;48.532;8.026;2022-08-21T06:55:37;7.53;;;2.00;;
21206;SDS011;10761;48.532;8.026;2022-08-21T06:58:04;5.15;;;2.63;;
21206;SDS011;10761;48.532;8.026;2022-08-21T07:00:30;5.47;;;2.33;;
21206;SDS011;10761;48.532;8.026;2022-08-21T07:02:57;4.35;;;2.20;;
21206;SDS011;10761;48.532;8.026;2022-08-21T07:05:27;7.05;;;2.05;;
21206;SDS011;10761;48.532;8.026;2022-08-21T07:07:53;5.55;;;2.22;;
21206;SDS011;10761;48.532;8.026;2022-08-21T07:10:19;5.90;;;2.25;;
21206;SDS011;10761;48.532;8.026;2022-08-21T07:12:45;5.85;;;2.30;;
21206;SDS011;10761;48.532;8.026;2022-08-21T07:15:10;7.55;;;2.10;;
21206;SDS011;10761;48.532;8.026;2022-08-21T07:17:36;8.63;;;2.30;;
21206;SDS011;10761;48.532;8.026;2022-08-21T07:20:02;5.35;;;2.25;;
21206;SDS011;10761;48.532;8.026;2022-08-21T07:22:29;6.18;;;2.03;;
21206;SDS011;10761;48.532;8.026;2022-08-21T07:24:55;6.43;;;2.25;;
21206;SDS011;10761;48.532;8.026;2022-08-21T07:27:21;7.18;;;2.25;;
21206;SDS011;10761;48.532;8.026;2022-08-21T07:29:47;5.07;;;2.20;;
21206;SDS011;10761;48.532;8.026;2022-08-21T07:32:13;7.55;;;2.45;;
21206;SDS011;10761;48.532;8.026;2022-08-21T07:34:39;4.72;;;2.30;;
21206;SDS011;10761;48.532;8.026;2022-08-21T07:37:05;4.38;;;1.70;;
21206;SDS011;10761;48.532;8.026;2022-08-21T07:39:31;7.72;;;2.53;;
21206;SDS011;10761;48.532;8.026;2022-08-21T07:41:57;4.60;;;2.38;;
21206;SDS011;10761;48.532;8.026;2022-08-21T07:44:22;6.72;;;2.50;;
21206;SDS011;10761;48.532;8.026;2022-08-21T07:46:48;4.13;;;2.30;;
21206;SDS011;10761;48.532;8.026;2022-08-21T07:49:13;5.55;;;2.03;;
21206;SDS011;10761;48.532;8.026;2022-08-21T07:51:39;5.40;;;2.20;;
21206;SDS011;10761;48.532;8.026;2022-08-21T07:54:04;6.75;;;2.40;;
21206;SDS011;10761;48.532;8.026;2022-08-21T07:56:30;6.13;;;2.47;;
21206;SDS011;10761;48.532;8.026;2022-08-21T07:58:56;5.85;;;2.20;;
21206;SDS011;10761;48.532;8.026;2022-08-21T08:01:22;9.30;;;2.55;;
21206;SDS011;10761;48.532;8.026;2022-08-21T08:03:48;6.38;;;2.25;;
21206;SDS011;10761;48.532;8.026;2022-08-21T08:06:14;8.95;;;2.30;;
21206;SDS011;10761;48.532;8.026;2022-08-21T08:08:41;8.23;;;2.40;;
21206;SDS011;10761;48.532;8.026;2022-08-21T08:11:08;5.22;;;2.20;;
21206;SDS011;10761;48.532;8.026;2022-08-21T08:13:41;8.07;;;2.05;;
21206;SDS011;10761;48.532;8.026;2022-08-21T08:16:08;7.82;;;2.22;;
21206;SDS011;10761;48.532;8.026;2022-08-21T08:18:34;8.57;;;2.20;;
21206;SDS011;10761;48.532;8.026;2022-08-21T08:21:00;6.80;;;2.40;;
21206;SDS011;10761;48.532;8.026;2022-08-21T08:23:25;4.93;;;2.25;;
21206;SDS011;10761;48.532;8.026;2022-08-21T08:25:52;4.78;;;2.38;;
21206;SDS011;10761;48.532;8.026;2022-08-21T08:28:18;6.88;;;2.47;;
21206;SDS011;10761;48.532;8.026;2022-08-21T08:30:44;5.50;;;2.30;;
21206;SDS011;10761;48.532;8.026;2022-08-21T08:33:11;5.20;;;2.13;;
21206;SDS011;10761;48.532;8.026;2022-08-21T08:35:36;5.22;;;2.25;;
21206;SDS011;10761;48.532;8.026;2022-08-21T08:38:02;4.97;;;2.60;;
21206;SDS011;10761;48.532;8.026;2022-08-21T08:40:32;8.10;;;2.25;;
21206;SDS011;10761;48.532;8.026;2022-08-21T08:43:01;8.07;;;2.78;;
21206;SDS011;10761;48.532;8.026;2022-08-21T08:45:36;6.80;;;2.40;;
21206;SDS011;10761;48.532;8.026;2022-08-21T08:48:05;5.75;;;2.28;;
21206;SDS011;10761;48.532;8.026;2022-08-21T08:50:53;8.95;;;2.63;;
21206;SDS011;10761;48.532;8.026;2022-08-21T08:53:32;5.68;;;2.38;;
21206;SDS011;10761;48.532;8.026;2022-08-21T08:56:01;8.35;;;2.05;;
21206;SDS011;10761;48.532;8.026;2022-08-21T08:58:41;7.95;;;2.20;;
21206;SDS011;10761;48.532;8.026;2022-08-21T09:01:12;5.80;;;2.55;;
21206;SDS011;10761;48.532;8.026;2022-08-21T09:03:42;5.80;;;2.22;;
21206;SDS011;10761;48.532;8.026;2022-08-21T09:12:02;6.63;;;2.53;;
21206;SDS011;10761;48.532;8.026;2022-08-21T09:14:41;5.88;;;2.70;;
21206;SDS011;10761;48.532;8.026;2022-08-21T09:22:22;7.05;;;2.90;;
21206;SDS011;10761;48.532;8.026;2022-08-21T09:27:45;8.75;;;3.08;;
21206;SDS011;10761;48.532;8.026;2022-08-21T09:30:11;6.88;;;3.05;;
21206;SDS011;10761;48.532;8.026;2022-08-21T09:32:38;10.30;;;2.78;;
21206;SDS011;10761;48.532;8.026;2022-08-21T09:35:14;7.45;;;3.10;;
21206;SDS011;10761;48.532;8.026;2022-08-21T09:40:56;7.80;;;2.50;;
21206;SDS011;10761;48.532;8.026;2022-08-21T09:43:05;6.05;;;2.47;;
21206;SDS011;10761;48.532;8.026;2022-08-21T09:45:42;7.82;;;2.47;;
21206;SDS011;10761;48.532;8.026;2022-08-21T09:48:17;6.53;;;2.40;;
21206;SDS011;10761;48.532;8.026;2022-08-21T09:50:44;11.25;;;2.67;;
21206;SDS011;10761;48.532;8.026;2022-08-21T09:53:16;8.57;;;2.75;;
21206;SDS011;10761;48.532;8.026;2022-08-21T09:55:49;8.00;;;2.53;;
21206;SDS011;10761;48.532;8.026;2022-08-21T09:58:40;9.27;;;2.85;;
21206;SDS011;10761;48.532;8.026;2022-08-21T10:01:11;8.27;;;3.10;;
21206;SDS011;10761;48.532;8.026;2022-08-21T10:03:39;8.80;;;2.60;;
21206;SDS011;10761;48.532;8.026;2022-08-21T10:06:06;11.15;;;2.90;;
21206;SDS011;10761;48.532;8.026;2022-08-21T10:08:35;7.28;;;2.70;;
21206;SDS011;10761;48.532;8.026;2022-08-21T10:11:07;6.10;;;2.55;;
21206;SDS011;10761;48.532;8.026;2022-08-21T10:19:47;7.25;;;2.67;;
21206;SDS011;10761;48.532;8.026;2022-08-21T10:24:58;5.97;;;2.30;;
21206;SDS011;10761;48.532;8.026;2022-08-21T10:32:39;6.00;;;2.60;;
21206;SDS011;10761;48.532;8.026;2022-08-21T10:35:17;7.38;;;2.70;;
21206;SDS011;10761;48.532;8.026;2022-08-21T10:40:38;5.38;;;2.35;;
21206;SDS011;10761;48.532;8.026;2022-08-21T10:46:07;5.70;;;2.53;;
21206;SDS011;10761;48.532;8.026;2022-08-21T10:48:57;5.57;;;2.20;;
21206;SDS011;10761;48.532;8.026;2022-08-21T10:54:05;6.18;;;1.85;;
21206;SDS011;10761;48.532;8.026;2022-08-21T10:56:44;4.85;;;1.70;;
21206;SDS011;10761;48.532;8.026;2022-08-21T10:59:28;7.20;;;2.40;;
21206;SDS011;10761;48.532;8.026;2022-08-21T11:04:37;7.40;;;2.03;;
21206;SDS011;10761;48.532;8.026;2022-08-21T11:07:25;6.55;;;1.98;;
21206;SDS011;10761;48.532;8.026;2022-08-21T11:10:02;6.45;;;2.20;;
21206;SDS011;10761;48.532;8.026;2022-08-21T11:12:43;4.90;;;1.85;;
21206;SDS011;10761;48.532;8.026;2022-08-21T11:15:19;5.82;;;2.20;;
21206;SDS011;10761;48.532;8.026;2022-08-21T11:18:31;7.55;;;2.10;;
21206;SDS011;10761;48.532;8.026;2022-08-21T11:20:42;4.28;;;1.90;;
21206;SDS011;10761;48.532;8.026;2022-08-21T11:23:41;5.53;;;1.80;;
21206;SDS011;10761;48.532;8.026;2022-08-21T11:26:09;3.65;;;1.90;;
21206;SDS011;10761;48.532;8.026;2022-08-21T11:28:52;4.53;;;1.80;;
21206;SDS011;10761;48.532;8.026;2022-08-21T11:31:26;4.35;;;1.73;;
21206;SDS011;10761;48.532;8.026;2022-08-21T11:34:18;3.67;;;2.00;;
21206;SDS011;10761;48.532;8.026;2022-08-21T11:42:55;5.38;;;2.03;;
21206;SDS011;10761;48.532;8.026;2022-08-21T11:45:39;5.47;;;2.13;;
21206;SDS011;10761;48.532;8.026;2022-08-21T11:48:28;7.07;;;2.20;;
21206;SDS011;10761;48.532;8.026;2022-08-21T11:51:11;5.13;;;1.90;;
21206;SDS011;10761;48.532;8.026;2022-08-21T11:53:43;4.55;;;1.92;;
21206;SDS011;10761;48.532;8.026;2022-08-21T11:56:35;5.35;;;1.88;;
21206;SDS011;10761;48.532;8.026;2022-08-21T11:59:09;5.35;;;2.05;;
21206;SDS011;10761;48.532;8.026;2022-08-21T12:04:08;3.78;;;1.75;;
21206;SDS011;10761;48.532;8.026;2022-08-21T12:06:42;5.53;;;2.10;;
21206;SDS011;10761;48.532;8.026;2022-08-21T12:09:28;4.22;;;1.85;;
21206;SDS011;10761;48.532;8.026;2022-08-21T12:12:01;7.80;;;2.08;;
21206;SDS011;10761;48.532;8.026;2022-08-21T12:14:40;5.00;;;1.60;;
21206;SDS011;10761;48.532;8.026;2022-08-21T12:17:57;5.60;;;1.60;;
21206;SDS011;10761;48.532;8.026;2022-08-21T12:20:26;4.18;;;1.73;;
21206;SDS011;10761;48.532;8.026;2022-08-21T12:22:53;4.25;;;1.90;;
21206;SDS011;10761;48.532;8.026;2022-08-21T12:25:38;4.45;;;1.73;;
21206;SDS011;10761;48.532;8.026;2022-08-21T12:28:10;6.63;;;1.98;;
21206;SDS011;10761;48.532;8.026;2022-08-21T12:30:39;7.82;;;2.38;;
21206;SDS011;10761;48.532;8.026;2022-08-21T12:35:52;6.78;;;1.70;;
21206;SDS011;10761;48.532;8.026;2022-08-21T12:38:28;3.50;;;1.60;;
21206;SDS011;10761;48.532;8.026;2022-08-21T12:41:04;4.50;;;1.90;;
21206;SDS011;10761;48.532;8.026;2022-08-21T12:43:35;5.18;;;1.80;;
21206;SDS011;10761;48.532;8.026;2022-08-21T12:46:25;3.72;;;1.70;;
21206;SDS011;10761;48.532;8.026;2022-08-21T12:49:03;3.80;;;1.73;;
21206;SDS011;10761;48.532;8.026;2022-08-21T12:51:57;3.78;;;1.70;;
21206;SDS011;10761;48.532;8.026;2022-08-21T12:54:36;2.85;;;1.30;;
21206;SDS011;10761;48.532;8.026;2022-08-21T12:57:05;3.15;;;1.70;;
21206;SDS011;10761;48.532;8.026;2022-08-21T12:59:36;5.75;;;1.60;;
21206;SDS011;10761;48.532;8.026;2022-08-21T13:02:03;5.03;;;1.90;;
21206;SDS011;10761;48.532;8.026;2022-08-21T13:04:38;3.83;;;1.95;;
21206;SDS011;10761;48.532;8.026;2022-08-21T13:07:09;6.05;;;1.90;;
21206;SDS011;10761;48.532;8.026;2022-08-21T13:09:41;6.13;;;1.70;;
21206;SDS011;10761;48.532;8.026;2022-08-21T13:12:17;4.47;;;1.80;;
21206;SDS011;10761;48.532;8.026;2022-08-21T13:14:45;2.53;;;1.38;;
21206;SDS011;10761;48.532;8.026;2022-08-21T13:17:16;3.63;;;1.75;;
21206;SDS011;10761;48.532;8.026;2022-08-21T13:19:52;2.35;;;1.80;;
21206;SDS011;10761;48.532;8.026;2022-08-21T13:22:19;3.85;;;1.40;;
21206;SDS011;10761;48.532;8.026;2022-08-21T13:24:46;3.92;;;1.67;;
21206;SDS011;10761;48.532;8.026;2022-08-21T13:27:20;5.88;;;1.65;;
21206;SDS011;10761;48.532;8.026;2022-08-21T13:30:06;3.58;;;1.75;;
21206;SDS011;10761;48.532;8.026;2022-08-21T13:32:43;2.67;;;1.67;;
21206;SDS011;10761;48.532;8.026;2022-08-21T13:35:16;4.13;;;1.80;;
21206;SDS011;10761;48.532;8.026;2022-08-21T13:37:48;6.40;;;2.13;;
21206;SDS011;10761;48.532;8.026;2022-08-21T13:40:17;4.40;;;1.90;;
21206;SDS011;10761;48.532;8.026;2022-08-21T13:43:13;4.63;;;1.95;;
21206;SDS011;10761;48.532;8.026;2022-08-21T13:45:44;4.75;;;1.50;;
21206;SDS011;10761;48.532;8.026;2022-08-21T13:48:13;5.72;;;1.95;;
21206;SDS011;10761;48.532;8.026;2022-08-21T13:50:39;7.00;;;1.90;;
21206;SDS011;10761;48.532;8.026;2022-08-21T13:53:18;4.38;;;1.88;;
21206;SDS011;10761;48.532;8.026;2022-08-21T13:56:04;2.80;;;1.60;;
21206;SDS011;10761;48.532;8.026;2022-08-21T14:00:58;4.35;;;1.80;;
21206;SDS011;10761;48.532;8.026;2022-08-21T14:03:27;2.47;;;1.50;;
21206;SDS011;10761;48.532;8.026;2022-08-21T14:06:10;3.60;;;1.80;;
21206;SDS011;10761;48.532;8.026;2022-08-21T14:08:57;4.95;;;1.67;;
21206;SDS011;10761;48.532;8.026;2022-08-21T14:11:26;7.00;;;1.77;;
21206;SDS011;10761;48.532;8.026;2022-08-21T14:13:58;4.47;;;1.63;;
21206;SDS011;10761;48.532;8.026;2022-08-21T14:16:27;4.75;;;1.67;;
21206;SDS011;10761;48.532;8.026;2022-08-21T14:21:32;2.70;;;1.73;;
21206;SDS011;10761;48.532;8.026;2022-08-21T14:24:05;3.35;;;1.55;;
21206;SDS011;10761;48.532;8.026;2022-08-21T14:26:56;5.82;;;1.85;;
21206;SDS011;10761;48.532;8.026;2022-08-21T14:29:32;4.10;;;1.52;;
21206;SDS011;10761;48.532;8.026;2022-08-21T14:32:00;2.97;;;1.58;;
21206;SDS011;10761;48.532;8.026;2022-08-21T14:34:41;2.90;;;1.52;;
21206;SDS011;10761;48.532;8.026;2022-08-21T14:37:07;5.32;;;1.90;;
21206;SDS011;10761;48.532;8.026;2022-08-21T14:39:32;3.00;;;1.35;;
21206;SDS011;10761;48.532;8.026;2022-08-21T14:41:58;4.32;;;1.88;;
21206;SDS011;10761;48.532;8.026;2022-08-21T14:44:25;5.93;;;1.67;;
21206;SDS011;10761;48.532;8.026;2022-08-21T14:46:51;4.03;;;1.40;;
21206;SDS011;10761;48.532;8.026;2022-08-21T14:49:18;3.85;;;1.75;;
21206;SDS011;10761;48.532;8.026;2022-08-21T14:51:44;4.40;;;1.58;;
21206;SDS011;10761;48.532;8.026;2022-08-21T14:54:09;2.88;;;1.40;;
21206;SDS011;10761;48.532;8.026;2022-08-21T14:56:35;2.45;;;1.38;;
21206;SDS011;10761;48.532;8.026;2022-08-21T14:59:02;2.38;;;1.10;;
21206;SDS011;10761;48.532;8.026;2022-08-21T15:01:31;3.35;;;1.33;;
21206;SDS011;10761;48.532;8.026;2022-08-21T15:04:00;2.35;;;1.33;;
21206;SDS011;10761;48.532;8.026;2022-08-21T15:06:25;1.90;;;1.13;;
21206;SDS011;10761;48.532;8.026;2022-08-21T15:08:51;2.38;;;0.95;;
21206;SDS011;10761;48.532;8.026;2022-08-21T15:11:18;1.80;;;1.00;;
21206;SDS011;10761;48.532;8.026;2022-08-21T15:13:46;2.45;;;1.00;;
21206;SDS011;10761;48.532;8.026;2022-08-21T15:16:15;1.40;;;0.90;;
21206;SDS011;10761;48.532;8.026;2022-08-21T15:18:41;2.17;;;1.00;;
21206;SDS011;10761;48.532;8.026;2022-08-21T15:21:07;2.35;;;1.00;;
21206;SDS011;10761;48.532;8.026;2022-08-21T15:23:33;4.88;;;1.20;;
21206;SDS011;10761;48.532;8.026;2022-08-21T15:25:58;2.78;;;0.90;;
21206;SDS011;10761;48.532;8.026;2022-08-21T15:28:24;1.83;;;1.30;;
21206;SDS011;10761;48.532;8.026;2022-08-21T15:30:50;3.05;;;0.98;;
21206;SDS011;10761;48.532;8.026;2022-08-21T15:33:16;1.17;;;0.93;;
21206;SDS011;10761;48.532;8.026;2022-08-21T15:35:43;2.22;;;1.10;;
21206;SDS011;10761;48.532;8.026;2022-08-21T15:38:09;2.05;;;1.00;;
21206;SDS011;10761;48.532;8.026;2022-08-21T15:40:35;2.67;;;1.10;;
21206;SDS011;10761;48.532;8.026;2022-08-21T15:43:02;2.30;;;1.08;;
21206;SDS011;10761;48.532;8.026;2022-08-21T15:45:29;2.33;;;1.02;;
21206;SDS011;10761;48.532;8.026;2022-08-21T15:47:55;1.80;;;1.10;;
21206;SDS011;10761;48.532;8.026;2022-08-21T15:50:22;1.80;;;1.00;;
21206;SDS011;10761;48.532;8.026;2022-08-21T15:52:48;3.45;;;1.00;;
21206;SDS011;10761;48.532;8.026;2022-08-21T15:55:14;2.47;;;0.90;;
21206;SDS011;10761;48.532;8.026;2022-08-21T15:57:44;1.30;;;0.77;;
21206;SDS011;10761;48.532;8.026;2022-08-21T16:00:14;2.55;;;1.15;;
21206;SDS011;10761;48.532;8.026;2022-08-21T16:02:42;1.55;;;1.00;;